Time;durP1;ratioP1;P1;durP2;ratioP2;P2;SDS_P1;SDS_P2;PMS_P1;PMS_P2;Temp;Humidity;BMP_temperature;BMP_pressure;BME280_temperature;BME280_humidity;BME280_pressure;Samples;Min_cycle;Max_cycle;Signal;HPM_P1;HPM_P2
2021/03/03 00:00:11;;;;;;;171.77;88.07;;;;;;;1.05;69.96;95774.36;1799876;78;21176;-51
2021/03/03 00:02:39;;;;;;;157.15;78.92;;;;;;;1.02;70.24;95779.14;1799917;78;21159;-50
2021/03/03 00:05:10;;;;;;;151.55;76.00;;;;;;;1.00;70.10;95772.52;1799805;78;21093;-50
2021/03/03 00:07:39;;;;;;;141.95;73.78;;;;;;;1.04;70.25;95774.15;1799894;79;21064;-51
2021/03/03 00:10:10;;;;;;;140.88;72.00;;;;;;;1.09;70.02;95769.77;1801582;78;21042;-50
2021/03/03 00:12:40;;;;;;;131.47;65.62;;;;;;;1.17;69.77;95771.44;1807884;79;21167;-51
2021/03/03 00:15:10;;;;;;;134.03;66.10;;;;;;;1.22;69.49;95773.87;1807833;78;21150;-51
2021/03/03 00:17:38;;;;;;;157.47;79.32;;;;;;;1.23;69.27;95770.02;1807748;78;21089;-50
2021/03/03 00:20:09;;;;;;;150.90;75.83;;;;;;;1.25;69.16;95763.66;1807806;79;21057;-51
2021/03/03 00:22:37;;;;;;;156.90;77.53;;;;;;;1.23;68.88;95767.30;1807845;79;21057;-51
2021/03/03 00:25:06;;;;;;;137.92;62.70;;;;;;;1.19;68.86;95773.80;1807849;79;21042;-51
2021/03/03 00:27:34;;;;;;;140.20;65.05;;;;;;;1.11;68.82;95763.42;1807810;79;21192;-51
2021/03/03 00:30:06;;;;;;;109.07;54.38;;;;;;;1.04;68.99;95772.80;1805985;78;21077;-51
2021/03/03 00:32:34;;;;;;;106.83;53.52;;;;;;;1.01;69.04;95772.16;1807801;79;21069;-50
2021/03/03 00:35:03;;;;;;;117.82;58.38;;;;;;;1.01;69.23;95763.24;1807882;78;21552;-50
2021/03/03 00:37:32;;;;;;;126.40;64.55;;;;;;;1.07;69.43;95763.14;1807808;79;21115;-50
2021/03/03 00:40:00;;;;;;;115.72;62.13;;;;;;;1.10;69.19;95760.50;1807800;78;21362;-50
2021/03/03 00:42:28;;;;;;;166.80;87.72;;;;;;;1.09;69.20;95760.84;1807806;78;21509;-50
2021/03/03 00:44:56;;;;;;;165.32;86.47;;;;;;;1.12;68.99;95756.09;1807792;79;21136;-50
2021/03/03 00:47:25;;;;;;;163.40;90.85;;;;;;;1.04;69.16;95766.02;1807803;78;21521;-50
2021/03/03 00:49:54;;;;;;;161.85;84.30;;;;;;;0.93;69.23;95760.22;1778609;79;21081;-51
2021/03/03 00:52:23;;;;;;;152.22;81.67;;;;;;;0.81;69.85;95753.02;1807819;78;21999;-51
2021/03/03 00:54:52;;;;;;;154.10;79.55;;;;;;;0.77;70.03;95748.70;1807742;78;21152;-51
2021/03/03 00:57:21;;;;;;;174.65;91.70;;;;;;;0.67;70.16;95759.56;1807781;79;21152;-51
2021/03/03 00:59:49;;;;;;;151.25;81.53;;;;;;;0.61;70.28;95750.14;1807739;78;21198;-51
2021/03/03 01:02:18;;;;;;;142.10;74.00;;;;;;;0.64;70.47;95752.16;1807811;79;21054;-51
2021/03/03 01:04:48;;;;;;;144.55;75.47;;;;;;;0.64;69.96;95751.36;1807774;78;21104;-51
2021/03/03 01:07:17;;;;;;;123.87;64.90;;;;;;;0.58;70.04;95751.45;1807728;79;21097;-50
2021/03/03 01:09:46;;;;;;;111.83;57.25;;;;;;;0.51;69.83;95749.40;1807708;78;21057;-50
2021/03/03 01:12:14;;;;;;;157.85;82.47;;;;;;;0.47;70.33;95751.82;1813054;79;21446;-50
2021/03/03 01:14:43;;;;;;;114.57;63.48;;;;;;;0.51;70.63;95748.05;1813495;78;21092;-50
2021/03/03 01:17:12;;;;;;;126.45;73.07;;;;;;;0.52;70.27;95747.45;1786423;79;21509;-51
2021/03/03 01:19:42;;;;;;;118.25;64.85;;;;;;;0.37;70.37;95750.48;1813418;78;21125;-50
2021/03/03 01:22:10;;;;;;;115.95;65.03;;;;;;;0.24;70.61;95753.11;1813431;79;21179;-50
2021/03/03 01:24:38;;;;;;;135.70;71.17;;;;;;;0.18;70.72;95747.78;1813458;79;21514;-51
2021/03/03 01:27:07;;;;;;;147.68;77.50;;;;;;;0.18;71.17;95747.78;1748876;79;21050;-51
2021/03/03 01:29:37;;;;;;;126.10;70.45;;;;;;;0.24;71.36;95750.99;1813451;79;21366;-51
2021/03/03 01:32:06;;;;;;;130.52;69.00;;;;;;;0.36;71.22;95748.91;1813544;78;21525;-51
2021/03/03 01:34:34;;;;;;;150.40;80.10;;;;;;;0.40;70.87;95749.75;1813440;79;21081;-50
2021/03/03 01:37:03;;;;;;;143.35;72.35;;;;;;;0.40;70.83;95743.58;1813467;78;21073;-51
2021/03/03 01:39:31;;;;;;;124.72;65.42;;;;;;;0.30;70.67;95743.59;1813478;79;21141;-49
2021/03/03 01:41:59;;;;;;;136.85;76.42;;;;;;;0.27;70.96;95737.55;1813465;79;21366;-50
2021/03/03 01:44:28;;;;;;;176.55;88.75;;;;;;;0.28;70.62;95738.31;1813374;78;21057;-50
2021/03/03 01:46:57;;;;;;;194.70;97.50;;;;;;;0.19;70.60;95737.17;1813449;78;21057;-49
2021/03/03 01:49:25;;;;;;;192.90;100.82;;;;;;;0.18;71.10;95735.61;1813419;78;21219;-51
2021/03/03 01:51:54;;;;;;;183.87;97.40;;;;;;;0.23;71.08;95742.08;1813475;79;21104;-50
2021/03/03 01:54:22;;;;;;;158.65;81.57;;;;;;;0.26;71.03;95748.13;1813446;78;21483;-51
2021/03/03 01:56:51;;;;;;;172.20;83.67;;;;;;;0.28;71.04;95743.16;1813480;79;21108;-50
2021/03/03 01:59:19;;;;;;;139.68;70.90;;;;;;;0.40;70.38;95744.34;1813475;79;21061;-50
2021/03/03 02:01:48;;;;;;;134.72;69.00;;;;;;;0.38;69.90;95738.52;1813358;77;21077;-50
2021/03/03 02:04:18;;;;;;;153.57;81.10;;;;;;;0.36;69.92;95735.94;1813473;78;21042;-50
2021/03/03 02:06:53;;;;;;;157.40;81.75;;;;;;;0.38;69.96;95744.52;1813482;78;21193;-51
2021/03/03 02:09:38;;;;;;;177.50;92.42;;;;;;;0.31;69.94;95739.74;1813448;79;21549;-50
2021/03/03 02:12:12;;;;;;;220.27;106.35;;;;;;;0.21;69.98;95739.53;1813341;78;21053;-51
2021/03/03 02:14:42;;;;;;;201.65;105.97;;;;;;;0.08;70.20;95736.17;1809586;79;21068;-51
2021/03/03 02:17:10;;;;;;;200.22;97.05;;;;;;;0.03;70.46;95737.81;1813427;78;21168;-50
2021/03/03 02:19:39;;;;;;;183.78;95.50;;;;;;;0.03;70.63;95740.52;1813457;79;21466;-51
2021/03/03 02:22:22;;;;;;;143.60;73.22;;;;;;;0.07;70.68;95733.25;1786884;79;21505;-49
2021/03/03 02:24:56;;;;;;;;;;;;;;;0.11;70.33;95734.13;1816235;78;21188;-51
2021/03/03 02:27:23;;;;;;;;;;;;;;;0.10;70.41;95733.13;1816170;79;20243;-51
2021/03/03 02:29:51;;;;;;;172.17;83.90;;;;;;;0.04;70.24;95727.21;1813497;79;20224;-51
2021/03/03 02:32:20;;;;;;;165.12;80.60;;;;;;;0.02;70.23;95726.02;1813592;79;21266;-51
2021/03/03 02:34:48;;;;;;;190.70;90.40;;;;;;;0.07;70.08;95718.37;1813664;78;21469;-50
2021/03/03 02:37:18;;;;;;;192.70;94.22;;;;;;;0.13;69.86;95715.63;1813587;78;21076;-51
2021/03/03 02:39:46;;;;;;;228.47;111.77;;;;;;;0.15;69.68;95723.36;1813566;79;21077;-52
2021/03/03 02:42:15;;;;;;;212.02;111.65;;;;;;;0.03;70.03;95722.94;1813624;79;21078;-50
2021/03/03 02:44:44;;;;;;;175.57;92.90;;;;;;;0.01;70.50;95725.22;1813608;79;21366;-51
2021/03/03 02:47:13;;;;;;;154.53;83.67;;;;;;;0.14;70.58;95733.41;1813528;79;21129;-51
2021/03/03 02:49:43;;;;;;;130.97;73.78;;;;;;;0.27;70.32;95731.34;1813479;78;21140;-51
2021/03/03 02:52:12;;;;;;;122.20;64.00;;;;;;;0.35;69.96;95722.99;1813564;79;21136;-51
2021/03/03 02:54:43;;;;;;;103.27;57.08;;;;;;;0.30;69.43;95723.84;1813620;79;21577;-50
2021/03/03 02:57:12;;;;;;;96.67;52.98;;;;;;;0.23;69.65;95729.14;1813666;78;21194;-51
2021/03/03 02:59:45;;;;;;;95.55;52.05;;;;;;;0.15;69.71;95729.56;1813562;77;21101;-53
2021/03/03 03:02:13;;;;;;;88.40;49.48;;;;;;;0.12;69.58;95727.58;1813703;78;21128;-50
2021/03/03 03:05:03;;;;;;;93.00;48.80;;;;;;;0.05;69.55;95722.59;1813623;78;21168;-51
2021/03/03 03:07:51;;;;;;;97.90;52.62;;;;;;;-0.07;69.97;95721.96;1813702;78;21085;-54
2021/03/03 03:10:37;;;;;;;114.80;59.80;;;;;;;-0.05;70.28;95722.39;1813571;78;21485;-51
2021/03/03 03:13:23;;;;;;;116.85;60.80;;;;;;;0.02;69.82;95728.14;1813590;79;21164;-51
2021/03/03 03:16:10;;;;;;;138.52;69.05;;;;;;;0.04;69.55;95734.55;1813583;79;21049;-51
2021/03/03 03:18:52;;;;;;;151.57;74.75;;;;;;;0.01;69.37;95724.45;1813664;79;21482;-51
2021/03/03 03:21:21;;;;;;;119.13;66.60;;;;;;;0.04;69.68;95728.56;1813769;78;21504;-51
2021/03/03 03:23:50;;;;;;;127.42;70.15;;;;;;;0.11;69.45;95724.66;1813597;78;21964;-51
2021/03/03 03:26:18;;;;;;;124.97;66.95;;;;;;;0.09;69.17;95735.62;1813510;78;21080;-51
2021/03/03 03:28:48;;;;;;;145.28;73.20;;;;;;;-0.02;69.24;95726.49;1813553;78;21050;-53
2021/03/03 03:31:16;;;;;;;113.32;59.42;;;;;;;-0.07;69.90;95726.02;1813482;78;21072;-51
2021/03/03 03:33:45;;;;;;;110.68;60.17;;;;;;;0.01;69.81;95727.16;1786985;79;21050;-50
2021/03/03 03:36:13;;;;;;;111.62;62.65;;;;;;;-0.05;69.20;95732.62;1813688;79;22602;-51
2021/03/03 03:38:42;;;;;;;108.57;59.67;;;;;;;-0.15;69.06;95720.23;1813528;78;21164;-51
2021/03/03 03:41:10;;;;;;;127.22;62.85;;;;;;;-0.24;69.02;95723.73;1813514;78;21176;-51
2021/03/03 03:43:39;;;;;;;120.72;62.65;;;;;;;-0.31;69.27;95731.12;1813528;79;21041;-51
2021/03/03 03:46:07;;;;;;;119.53;63.98;;;;;;;-0.30;69.39;95734.03;1813601;79;21129;-51
2021/03/03 03:48:36;;;;;;;123.65;65.62;;;;;;;-0.20;69.51;95724.58;1813636;79;21421;-51
2021/03/03 03:51:08;;;;;;;129.50;70.80;;;;;;;-0.11;69.21;95724.59;1813452;79;21492;-51
2021/03/03 03:53:36;;;;;;;140.75;74.60;;;;;;;-0.05;69.35;95725.09;1813669;78;21069;-52
2021/03/03 03:56:07;;;;;;;145.17;75.20;;;;;;;0.02;69.22;95724.08;1813649;79;21576;-50
2021/03/03 03:58:36;;;;;;;171.20;83.22;;;;;;;0.09;68.77;95721.53;1787199;79;21569;-51
2021/03/03 04:01:05;;;;;;;140.45;71.80;;;;;;;0.14;68.52;95720.44;1813503;77;21187;-50
2021/03/03 04:03:33;;;;;;;141.92;71.42;;;;;;;0.17;67.94;95720.52;1813481;79;21141;-50
2021/03/03 04:06:02;;;;;;;129.68;66.20;;;;;;;0.06;67.76;95724.16;1813513;79;21184;-51
2021/03/03 04:08:31;;;;;;;136.92;70.95;;;;;;;-0.03;68.20;95720.11;1813550;78;21586;-50
2021/03/03 04:10:59;;;;;;;129.15;68.17;;;;;;;0.00;68.22;95717.48;1813405;78;21049;-51
2021/03/03 04:13:27;;;;;;;157.35;79.58;;;;;;;-0.01;68.16;95719.39;1813397;79;21445;-51
2021/03/03 04:15:56;;;;;;;156.47;83.45;;;;;;;0.05;67.85;95719.89;1813469;79;21089;-51
2021/03/03 04:18:24;;;;;;;150.80;78.80;;;;;;;0.08;67.75;95720.53;1813511;78;21553;-52
2021/03/03 04:20:54;;;;;;;153.87;76.92;;;;;;;0.09;67.52;95719.39;1813511;78;21128;-50
2021/03/03 04:23:23;;;;;;;132.55;70.10;;;;;;;0.05;67.54;95721.24;1813507;79;21128;-51
2021/03/03 04:25:51;;;;;;;126.40;71.20;;;;;;;-0.01;67.67;95716.69;1813521;79;21200;-51
2021/03/03 04:28:19;;;;;;;138.20;77.85;;;;;;;-0.02;67.72;95714.32;1813459;79;21085;-49
2021/03/03 04:30:47;;;;;;;149.87;84.97;;;;;;;-0.04;67.79;95716.60;1813483;78;21045;-51
2021/03/03 04:33:16;;;;;;;150.87;83.80;;;;;;;-0.02;68.03;95701.39;1813612;79;21514;-51
2021/03/03 04:35:44;;;;;;;154.78;82.85;;;;;;;-0.01;68.12;95705.07;1813564;79;21089;-50
2021/03/03 04:38:13;;;;;;;141.03;80.15;;;;;;;-0.04;68.20;95705.02;1813488;78;21739;-51
2021/03/03 04:40:41;;;;;;;137.22;74.17;;;;;;;-0.07;68.26;95716.55;1813452;79;21141;-51
2021/03/03 04:43:11;;;;;;;145.38;78.20;;;;;;;-0.14;68.27;95709.08;1813539;79;21160;-51
2021/03/03 04:45:39;;;;;;;142.07;75.15;;;;;;;-0.17;68.48;95713.84;1786881;79;21078;-51
2021/03/03 04:48:09;;;;;;;127.92;69.03;;;;;;;-0.24;68.46;95708.86;1813524;78;21050;-51
2021/03/03 04:50:38;;;;;;;126.20;67.67;;;;;;;-0.32;68.63;95712.53;1813465;78;21982;-50
2021/03/03 04:53:07;;;;;;;115.52;64.53;;;;;;;-0.38;68.75;95712.61;1813410;78;21077;-49
2021/03/03 04:55:35;;;;;;;138.62;79.15;;;;;;;-0.33;68.65;95708.27;1813479;78;21045;-51
2021/03/03 04:58:04;;;;;;;123.67;69.77;;;;;;;-0.31;68.51;95714.90;1813574;79;21593;-51
2021/03/03 05:00:34;;;;;;;126.78;68.72;;;;;;;-0.23;68.53;95705.78;1813467;77;21109;-50
2021/03/03 05:03:03;;;;;;;102.78;57.70;;;;;;;-0.16;68.30;95713.27;1813479;78;21193;-51
2021/03/03 05:05:31;;;;;;;108.32;60.85;;;;;;;-0.16;68.37;95710.56;1813508;78;21564;-51
2021/03/03 05:08:00;;;;;;;108.52;60.38;;;;;;;-0.11;68.55;95714.32;1813485;79;21128;-50
2021/03/03 05:10:28;;;;;;;111.30;63.33;;;;;;;-0.14;68.37;95711.78;1813561;79;21482;-51
2021/03/03 05:12:57;;;;;;;113.25;60.88;;;;;;;-0.16;68.65;95715.97;1807138;78;21037;-51
2021/03/03 05:15:25;;;;;;;107.97;58.52;;;;;;;-0.13;68.54;95716.05;1799843;78;21492;-50
2021/03/03 05:17:53;;;;;;;128.45;72.55;;;;;;;-0.18;68.45;95714.19;1799806;78;21167;-54
2021/03/03 05:20:23;;;;;;;125.10;67.20;;;;;;;-0.36;68.59;95719.80;1799848;78;21092;-51
2021/03/03 05:22:51;;;;;;;151.72;92.72;;;;;;;-0.39;69.08;95719.16;1799823;78;21156;-51
2021/03/03 05:25:20;;;;;;;125.45;69.85;;;;;;;-0.34;68.98;95718.31;1799894;78;21635;-51
2021/03/03 05:27:49;;;;;;;133.22;72.27;;;;;;;-0.33;68.71;95716.38;1799826;79;21191;-51
2021/03/03 05:30:19;;;;;;;162.00;91.95;;;;;;;-0.30;68.77;95729.19;1799754;78;21155;-51
2021/03/03 05:32:48;;;;;;;161.10;91.63;;;;;;;-0.36;68.74;95719.80;1799916;79;21462;-52
2021/03/03 05:35:16;;;;;;;165.68;93.60;;;;;;;-0.43;68.99;95729.11;1799831;79;21060;-51
2021/03/03 05:37:45;;;;;;;171.55;93.22;;;;;;;-0.42;69.07;95729.33;1799852;78;21065;-50
2021/03/03 05:40:15;;;;;;;144.28;85.70;;;;;;;-0.46;69.14;95728.44;1799858;79;21505;-51
2021/03/03 05:42:43;;;;;;;159.85;93.22;;;;;;;-0.43;69.36;95725.83;1799755;78;21124;-51
2021/03/03 05:45:14;;;;;;;166.55;95.55;;;;;;;-0.42;69.52;95732.03;1799822;79;21524;-51
2021/03/03 05:47:42;;;;;;;154.35;83.37;;;;;;;-0.37;69.90;95727.69;1799831;78;21113;-51
2021/03/03 05:50:12;;;;;;;160.57;86.47;;;;;;;-0.23;69.88;95730.12;1799804;79;21144;-51
2021/03/03 05:52:41;;;;;;;168.82;93.52;;;;;;;-0.18;69.62;95731.77;1784479;79;22557;-52
2021/03/03 05:55:11;;;;;;;159.55;88.75;;;;;;;-0.16;69.61;95728.13;1799700;78;21077;-51
2021/03/03 05:57:39;;;;;;;166.15;93.72;;;;;;;-0.15;69.51;95724.30;1784792;79;21065;-52
2021/03/03 06:00:11;;;;;;;160.57;89.85;;;;;;;-0.11;69.72;95725.14;1799812;78;21084;-51
2021/03/03 06:02:39;;;;;;;125.80;75.08;;;;;;;-0.02;70.19;95732.48;1799860;79;21056;-51
2021/03/03 06:05:10;;;;;;;132.35;72.42;;;;;;;0.18;69.99;95728.05;1748913;79;21334;-51
2021/03/03 06:07:38;;;;;;;191.47;107.12;;;;;;;0.35;70.02;95742.49;1799702;78;21096;-53
2021/03/03 06:10:09;;;;;;;159.78;93.05;;;;;;;0.37;69.60;95732.89;1799750;79;21041;-51
2021/03/03 06:12:37;;;;;;;157.27;90.35;;;;;;;0.36;69.42;95734.03;1799663;78;21690;-50
2021/03/03 06:15:07;;;;;;;137.30;80.57;;;;;;;0.34;69.82;95736.88;1799847;78;21057;-51
2021/03/03 06:17:36;;;;;;;117.65;64.20;;;;;;;0.46;69.76;95730.75;1799808;78;21193;-53
2021/03/03 06:20:06;;;;;;;95.55;53.90;;;;;;;0.59;69.80;95736.19;1801065;78;21128;-52
2021/03/03 06:22:34;;;;;;;84.47;51.18;;;;;;;0.68;69.67;95732.70;1802287;78;21122;-54
2021/03/03 06:25:04;;;;;;;68.07;44.38;;;;;;;0.71;69.95;95734.67;1791112;79;21124;-52
2021/03/03 06:27:38;;;;;;;60.78;35.95;;;;;;;0.83;69.90;95734.52;1759145;79;21140;-52
2021/03/03 06:30:12;;;;;;;70.42;43.35;;;;;;;0.90;70.23;95727.05;1799815;78;21250;-53
2021/03/03 06:32:55;;;;;;;87.22;51.30;;;;;;;1.06;70.13;95729.86;1802360;77;21161;-52
2021/03/03 06:35:43;;;;;;;77.27;48.30;;;;;;;1.18;69.74;95724.23;1801074;79;21108;-50
2021/03/03 06:38:15;;;;;;;71.62;43.13;;;;;;;1.24;70.01;95728.22;1781627;79;21152;-52
2021/03/03 06:40:57;;;;;;;77.27;42.83;;;;;;;1.37;69.70;95726.88;1800897;78;21108;-52
2021/03/03 06:43:30;;;;;;;95.57;50.95;;;;;;;1.38;69.55;95722.22;1786434;78;21340;-52
2021/03/03 06:46:18;;;;;;;78.95;48.05;;;;;;;1.35;69.58;95721.02;1785910;79;21510;-54
2021/03/03 06:48:47;;;;;;;70.17;40.43;;;;;;;1.37;69.66;95718.75;1785385;78;21172;-51
2021/03/03 06:51:26;;;;;;;54.00;34.20;;;;;;;1.36;69.91;95722.58;1800256;78;21045;-53
2021/03/03 06:53:56;;;;;;;46.08;27.75;;;;;;;1.42;69.84;95723.84;1808581;78;21127;-54
2021/03/03 06:56:43;;;;;;;50.35;30.45;;;;;;;1.47;69.62;95719.45;1799529;78;21208;-54
2021/03/03 06:59:30;;;;;;;60.17;35.13;;;;;;;1.49;69.61;95709.03;1807841;78;21136;-50
2021/03/03 07:02:16;;;;;;;68.02;37.83;;;;;;;1.63;69.81;95708.44;1808321;77;21164;-56
2021/03/03 07:04:57;;;;;;;89.05;46.90;;;;;;;1.84;69.55;95717.09;1796843;78;21172;-54
2021/03/03 07:07:26;;;;;;;63.25;35.88;;;;;;;1.97;69.33;95709.50;1803336;77;21038;-53
2021/03/03 07:09:59;;;;;;;57.65;36.63;;;;;;;2.01;69.20;95708.96;1803334;77;21204;-54
2021/03/03 07:12:30;;;;;;;136.92;80.30;;;;;;;2.04;69.09;95702.79;1796774;78;21124;-53
2021/03/03 07:15:09;;;;;;;175.47;94.55;;;;;;;2.13;69.09;95710.09;1798891;78;21085;-57
2021/03/03 07:17:41;;;;;;;96.75;51.65;;;;;;;2.22;68.99;95710.00;1801179;78;21189;-59
2021/03/03 07:20:14;;;;;;;93.62;50.15;;;;;;;2.37;68.99;95704.15;1802644;78;21183;-54
2021/03/03 07:22:47;;;;;;;70.70;39.10;;;;;;;2.52;68.56;95705.27;1798141;79;21932;-52
2021/03/03 07:25:17;;;;;;;76.45;42.23;;;;;;;2.57;68.46;95705.52;1780648;79;21620;-54
2021/03/03 07:27:47;;;;;;;57.48;33.80;;;;;;;2.58;68.48;95703.02;1798216;78;21129;-52
2021/03/03 07:30:23;;;;;;;55.95;33.60;;;;;;;2.66;68.62;95705.43;1798625;79;21116;-55
2021/03/03 07:32:52;;;;;;;67.40;41.98;;;;;;;2.69;68.67;95702.55;1796562;78;21083;-51
2021/03/03 07:35:23;;;;;;;70.00;38.70;;;;;;;2.75;68.75;95699.69;1807570;78;21267;-51
2021/03/03 07:37:54;;;;;;;76.87;45.17;;;;;;;2.85;68.99;95697.66;1794217;78;21144;-53
2021/03/03 07:40:28;;;;;;;88.07;45.78;;;;;;;2.95;68.76;95701.83;1780839;80;21594;-54
2021/03/03 07:43:00;;;;;;;73.50;39.53;;;;;;;3.10;68.65;95706.80;1797411;79;21640;-55
2021/03/03 07:45:39;;;;;;;;;;;;;;;3.27;68.59;95698.00;1800340;78;21188;-53
2021/03/03 07:48:11;;;;;;;61.30;35.28;;;;;;;3.45;68.31;95697.55;1793747;78;21397;-52
2021/03/03 07:50:40;;;;;;;67.92;41.80;;;;;;;3.53;68.14;95692.55;1801655;77;22126;-53
2021/03/03 07:53:10;;;;;;;51.88;33.78;;;;;;;3.64;67.90;95696.13;1807248;78;21113;-53
2021/03/03 07:55:39;;;;;;;56.65;33.48;;;;;;;3.80;68.01;95698.55;1797424;78;21191;-52
2021/03/03 07:58:07;;;;;;;46.05;30.45;;;;;;;3.86;67.67;95692.36;1797573;78;21144;-53
2021/03/03 08:00:39;;;;;;;53.80;33.33;;;;;;;3.94;67.38;95693.18;1789989;78;22256;-53
2021/03/03 08:03:07;;;;;;;46.18;29.40;;;;;;;4.02;67.39;95692.06;1784952;79;21849;-56
2021/03/03 08:05:39;;;;;;;45.03;29.42;;;;;;;4.12;67.29;95690.75;1789747;79;21193;-55
2021/03/03 08:08:24;;;;;;;51.33;30.82;;;;;;;4.23;66.69;95688.83;1777336;78;21738;-57
2021/03/03 08:11:05;;;;;;;37.20;24.00;;;;;;;4.34;66.41;95694.31;1799211;79;21182;-56
2021/03/03 08:13:38;;;;;;;33.63;23.55;;;;;;;4.43;66.29;95681.89;1786633;79;21074;-54
2021/03/03 08:16:08;;;;;;;30.97;21.00;;;;;;;4.51;66.24;95682.13;1800277;78;21191;-53
2021/03/03 08:21:32;;;;;;;34.10;23.62;;;;;;;4.78;66.03;95673.80;1874839;75;22324;-55
2021/03/03 08:24:02;;;;;;;39.70;25.05;;;;;;;4.85;65.74;95679.28;1833022;77;22281;-53
2021/03/03 08:26:33;;;;;;;42.48;27.77;;;;;;;4.98;65.64;95673.63;1838072;77;22179;-52
2021/03/03 08:29:27;;;;;;;46.60;29.15;;;;;;;5.11;65.46;95681.63;1849230;77;21598;-54
2021/03/03 08:32:22;;;;;;;58.60;32.88;;;;;;;5.25;65.64;95671.48;1828788;77;21193;-56
2021/03/03 08:34:52;;;;;;;58.28;34.48;;;;;;;5.41;65.34;95671.86;1843370;77;21185;-54
2021/03/03 08:37:29;;;;;;;40.10;25.75;;;;;;;5.56;64.50;95664.43;1841707;77;21154;-55
2021/03/03 08:39:57;;;;;;;38.38;23.87;;;;;;;5.70;64.49;95659.75;1825443;77;21669;-53
2021/03/03 08:42:31;;;;;;;35.52;23.22;;;;;;;5.84;63.64;95657.59;1849598;77;21134;-60
2021/03/03 08:45:08;;;;;;;33.20;22.20;;;;;;;5.99;63.11;95650.31;1834174;77;21586;-53
2021/03/03 08:47:52;;;;;;;37.50;22.80;;;;;;;6.16;62.49;95656.91;1841901;77;21161;-53
2021/03/03 08:50:38;;;;;;;35.58;22.90;;;;;;;6.33;61.88;95654.69;1840322;77;22012;-52
2021/03/03 08:53:26;;;;;;;34.67;22.48;;;;;;;6.44;61.20;95648.56;1851703;77;22165;-53
2021/03/03 08:55:56;;;;;;;31.95;21.57;;;;;;;6.61;60.49;95655.89;1818241;77;21094;-54
2021/03/03 08:58:40;;;;;;;30.55;21.35;;;;;;;6.83;60.59;95645.00;1837031;77;21158;-52
2021/03/03 09:01:11;;;;;;;35.13;21.97;;;;;;;6.98;59.74;95645.09;1819789;77;21169;-56
2021/03/03 09:03:39;;;;;;;39.53;24.95;;;;;;;7.17;59.17;95642.61;1780763;78;21154;-54
2021/03/03 09:06:09;;;;;;;29.98;20.20;;;;;;;7.39;58.00;95639.88;1808748;77;21671;-50
2021/03/03 09:08:42;;;;;;;34.63;21.33;;;;;;;7.54;57.10;95640.70;1786086;78;21130;-53
2021/03/03 09:11:15;;;;;;;35.78;21.62;;;;;;;7.65;56.28;95633.17;1820930;78;21135;-53
2021/03/03 09:13:44;;;;;;;30.72;20.75;;;;;;;7.77;55.22;95626.39;1816775;77;21177;-55
2021/03/03 09:16:13;;;;;;;29.60;19.37;;;;;;;7.90;55.41;95630.94;1816650;78;21159;-57
2021/03/03 09:18:41;;;;;;;31.48;21.07;;;;;;;8.11;54.89;95622.47;1817114;78;21408;-58
2021/03/03 09:21:13;;;;;;;31.15;19.50;;;;;;;8.34;54.02;95629.48;1792914;78;21471;-55
2021/03/03 09:23:42;;;;;;;;;;;;;;;8.59;53.93;95626.42;1785299;79;21633;-53
2021/03/03 09:26:19;;;;;;;25.62;18.48;;;;;;;8.81;52.80;95622.17;1790008;80;20305;-57
2021/03/03 09:28:48;;;;;;;30.62;20.05;;;;;;;9.05;52.25;95617.69;1790053;79;21622;-55
2021/03/03 09:31:35;;;;;;;36.80;21.73;;;;;;;9.37;52.17;95618.72;1782156;79;21405;-52
2021/03/03 09:34:04;;;;;;;36.93;22.52;;;;;;;9.66;51.38;95612.14;1781654;80;21182;-55
2021/03/03 09:36:32;;;;;;;30.27;18.80;;;;;;;10.02;50.20;95617.94;1780318;80;21552;-52
2021/03/03 09:39:03;;;;;;;29.30;19.95;;;;;;;10.32;49.26;95609.49;1775443;80;21169;-53
2021/03/03 09:41:31;;;;;;;24.57;17.65;;;;;;;10.57;48.41;95611.73;1762112;80;21206;-53
2021/03/03 09:44:07;;;;;;;27.25;17.40;;;;;;;10.82;48.01;95610.75;1775671;80;22125;-53
2021/03/03 09:46:55;;;;;;;22.20;14.55;;;;;;;11.07;47.53;95602.71;1774488;80;21190;-55
2021/03/03 09:49:31;;;;;;;27.65;16.67;;;;;;;11.39;47.01;95610.96;1778313;80;21267;-52
2021/03/03 09:52:00;;;;;;;22.32;14.20;;;;;;;11.69;45.16;95596.09;1785501;80;21207;-52
2021/03/03 09:54:33;;;;;;;29.45;16.97;;;;;;;12.00;44.41;95602.72;1784104;79;21607;-55
2021/03/03 09:57:09;;;;;;;28.63;18.80;;;;;;;12.45;43.56;95604.19;1779559;79;21208;-53
2021/03/03 09:59:43;;;;;;;29.15;16.15;;;;;;;12.93;42.71;95606.73;1787118;80;21492;-55
2021/03/03 10:02:13;;;;;;;23.45;16.20;;;;;;;13.49;40.94;95603.56;1791691;80;21768;-54
2021/03/03 10:04:42;;;;;;;17.30;13.83;;;;;;;14.05;40.08;95598.87;1771036;79;21150;-54
2021/03/03 10:07:15;;;;;;;29.20;14.63;;;;;;;14.64;39.37;95599.50;1782685;80;21205;-54
2021/03/03 10:09:47;;;;;;;30.48;19.05;;;;;;;15.26;38.34;95596.27;1763772;80;22202;-53
2021/03/03 10:12:18;;;;;;;24.60;16.40;;;;;;;15.87;36.87;95588.45;1783687;80;21283;-53
2021/03/03 10:15:11;;;;;;;34.35;21.37;;;;;;;16.48;36.51;95591.70;1777189;79;21186;-58
2021/03/03 10:17:47;;;;;;;22.80;14.98;;;;;;;17.03;34.94;95585.58;1781844;80;21582;-55
2021/03/03 10:20:38;;;;;;;24.05;16.60;;;;;;;17.48;32.78;95585.41;1775581;79;21149;-55
2021/03/03 10:23:17;;;;;;;34.65;19.32;;;;;;;17.80;32.79;95586.65;1769844;80;22232;-56
2021/03/03 10:26:01;;;;;;;26.73;17.67;;;;;;;18.09;32.29;95586.14;1746467;81;21193;-54
2021/03/03 10:28:30;;;;;;;30.23;18.25;;;;;;;18.46;31.77;95582.59;1763258;80;21071;-53
2021/03/03 10:31:04;;;;;;;25.80;16.85;;;;;;;18.83;30.94;95576.82;1745786;81;21096;-54
2021/03/03 10:33:39;;;;;;;37.98;20.85;;;;;;;19.13;29.48;95574.79;1735846;81;21156;-52
2021/03/03 10:36:18;;;;;;;23.73;13.93;;;;;;;19.41;29.38;95572.61;1745965;80;22272;-53
2021/03/03 10:38:49;;;;;;;18.48;12.35;;;;;;;19.80;28.57;95566.21;1745409;81;21330;-54
2021/03/03 10:41:24;;;;;;;41.63;13.62;;;;;;;20.12;27.85;95558.16;1744271;81;22272;-54
2021/03/03 10:43:52;;;;;;;15.98;11.63;;;;;;;20.47;27.57;95549.80;1734397;81;21085;-55
2021/03/03 10:46:23;;;;;;;29.05;14.30;;;;;;;20.87;27.07;95541.34;1734359;81;22064;-54
2021/03/03 10:48:57;;;;;;;30.57;14.20;;;;;;;21.21;26.42;95531.97;1743965;81;21217;-53
2021/03/03 10:51:35;;;;;;;33.25;12.15;;;;;;;21.62;25.79;95540.30;1762924;81;21626;-56
2021/03/03 10:54:05;;;;;;;15.03;11.03;;;;;;;21.96;24.80;95538.61;1745630;81;21119;-53
2021/03/03 10:56:37;;;;;;;33.80;11.85;;;;;;;22.34;24.29;95536.61;1742971;81;21104;-59
2021/03/03 10:59:11;;;;;;;20.52;10.72;;;;;;;22.68;24.04;95534.81;1748398;81;21199;-55
2021/03/03 11:01:49;;;;;;;14.95;10.15;;;;;;;23.03;24.24;95522.48;1736010;81;21201;-53
2021/03/03 11:04:18;;;;;;;18.77;10.78;;;;;;;23.21;22.40;95531.84;1734548;81;21155;-53
2021/03/03 11:06:46;;;;;;;25.05;12.70;;;;;;;23.24;21.89;95518.83;1734615;81;21599;-54
2021/03/03 11:09:18;;;;;;;25.05;16.37;;;;;;;23.40;21.92;95508.23;1738381;81;21198;-54
2021/03/03 11:11:51;;;;;;;22.52;12.90;;;;;;;23.69;22.70;95510.47;1756457;81;21162;-54
2021/03/03 11:14:19;;;;;;;13.85;10.05;;;;;;;23.92;22.09;95505.72;1734712;81;21215;-54
2021/03/03 11:16:48;;;;;;;16.27;10.93;;;;;;;24.02;22.52;95493.67;1734438;81;21139;-53
2021/03/03 11:19:18;;;;;;;14.23;9.75;;;;;;;24.05;21.85;95505.28;1734447;81;21207;-53
2021/03/03 11:21:48;;;;;;;14.18;9.10;;;;;;;24.11;22.11;95495.42;1732805;81;21148;-55
2021/03/03 11:24:16;;;;;;;21.37;10.80;;;;;;;24.19;22.35;95485.18;1731530;80;21166;-56
2021/03/03 11:26:46;;;;;;;10.65;7.92;;;;;;;24.27;22.33;95485.52;1731234;80;21399;-54
2021/03/03 11:29:14;;;;;;;17.42;8.88;;;;;;;24.52;20.89;95482.98;1731247;80;21199;-54
2021/03/03 11:31:43;;;;;;;30.92;9.55;;;;;;;24.65;20.66;95481.77;1731623;81;21132;-54
2021/03/03 11:34:13;;;;;;;50.60;10.40;;;;;;;24.93;19.92;95480.16;1731598;80;21151;-54
2021/03/03 11:36:41;;;;;;;22.73;8.38;;;;;;;25.11;19.45;95471.06;1731657;80;21160;-55
2021/03/03 11:39:11;;;;;;;16.70;8.00;;;;;;;25.19;19.59;95468.59;1731638;80;21222;-55
2021/03/03 11:41:39;;;;;;;12.05;7.22;;;;;;;25.51;19.64;95464.57;1750344;81;21188;-54